Time;durP1;ratioP1;P1;durP2;ratioP2;P2;SDS_P1;SDS_P2;PMS_P1;PMS_P2;Temp;Humidity;BMP_temperature;BMP_pressure;BME280_temperature;BME280_humidity;BME280_pressure;Samples;Min_cycle;Max_cycle;Signal;HPM_P1;HPM_P2
2023/11/19 00:00:18;;;;;;;1.58;0.70;;;;;;;-1.46;67.63;102060.94;5058279;28;20045;-70
2023/11/19 00:02:45;;;;;;;1.70;0.90;;;;;;;-1.46;67.83;102057.50;5062499;28;20516;-70
2023/11/19 00:05:13;;;;;;;1.13;0.80;;;;;;;-1.46;67.58;102054.94;5060715;28;20055;-70
2023/11/19 00:07:42;;;;;;;0.90;0.68;;;;;;;-1.50;67.42;102048.78;5058713;28;20172;-71
2023/11/19 00:10:10;;;;;;;2.72;0.85;;;;;;;-1.48;67.95;102047.19;5064105;28;20102;-71
2023/11/19 00:12:38;;;;;;;1.27;0.75;;;;;;;-1.52;68.15;102036.69;5061686;28;20103;-68
2023/11/19 00:15:06;;;;;;;3.13;1.08;;;;;;;-1.51;67.26;102038.44;5056361;28;20052;-71
2023/11/19 00:17:32;;;;;;;1.05;0.95;;;;;;;-1.50;68.12;102040.22;5062449;28;20890;-70
2023/11/19 00:19:59;;;;;;;1.33;0.93;;;;;;;-1.51;67.81;102044.44;5060406;28;20041;-70
2023/11/19 00:22:27;;;;;;;2.75;1.30;;;;;;;-1.51;67.37;102041.88;5057840;28;20049;-74
2023/11/19 00:24:54;;;;;;;0.98;0.75;;;;;;;-1.51;67.65;102035.88;5060408;28;20135;-73
2023/11/19 00:27:21;;;;;;;2.20;0.70;;;;;;;-1.51;67.26;102038.44;5057155;28;20036;-74
2023/11/19 00:29:48;;;;;;;1.60;1.00;;;;;;;-1.52;67.72;102036.69;5060894;28;20146;-74
2023/11/19 00:32:15;;;;;;;2.10;0.77;;;;;;;-1.52;67.97;102031.56;5063281;28;20047;-73
2023/11/19 00:34:44;;;;;;;0.98;0.68;;;;;;;-1.58;67.27;102020.22;5059834;28;20504;-73
2023/11/19 00:37:11;;;;;;;5.65;1.33;;;;;;;-1.54;67.55;102020.38;5059427;28;20059;-74
2023/11/19 00:39:39;;;;;;;0.98;0.75;;;;;;;-1.53;68.06;102023.00;5060668;28;20581;-72
2023/11/19 00:42:06;;;;;;;1.80;1.30;;;;;;;-1.54;67.50;102017.81;5059938;28;20058;-72
2023/11/19 00:44:33;;;;;;;3.08;1.23;;;;;;;-1.58;67.44;102009.09;5061417;28;20139;-73
2023/11/19 00:47:00;;;;;;;1.45;0.77;;;;;;;-1.54;67.58;102008.41;5057893;28;20053;-73
2023/11/19 00:49:27;;;;;;;1.45;0.73;;;;;;;-1.56;67.38;102004.06;5057635;28;20072;-73
2023/11/19 00:51:54;;;;;;;1.80;1.00;;;;;;;-1.55;67.46;102008.38;5060609;28;20054;-72
2023/11/19 00:54:21;;;;;;;1.38;1.17;;;;;;;-1.56;67.82;102010.06;5054937;28;20044;-74
2023/11/19 00:56:52;;;;;;;2.22;1.30;;;;;;;-1.57;67.76;102003.16;5060981;28;20041;-73
2023/11/19 00:59:19;;;;;;;1.65;1.20;;;;;;;-1.58;67.37;101992.03;5057299;28;20108;-73
2023/11/19 01:01:47;;;;;;;0.90;0.70;;;;;;;-1.60;68.03;101985.94;5056779;28;20041;-73
2023/11/19 01:04:14;;;;;;;1.52;0.88;;;;;;;-1.60;67.27;101991.06;5059988;28;20060;-72
2023/11/19 01:06:41;;;;;;;2.17;1.05;;;;;;;-1.61;67.60;101989.31;5064975;28;20041;-73
2023/11/19 01:09:09;;;;;;;1.10;0.82;;;;;;;-1.61;67.21;101984.19;5062038;28;20049;-73
2023/11/19 01:11:36;;;;;;;2.10;1.20;;;;;;;-1.61;67.46;101986.75;5058384;28;20053;-73
2023/11/19 01:14:05;;;;;;;3.22;1.00;;;;;;;-1.61;67.30;101985.88;5059718;28;20053;-72
2023/11/19 01:16:32;;;;;;;1.60;1.00;;;;;;;-1.62;67.23;101979.88;5058470;28;20040;-73
2023/11/19 01:19:03;;;;;;;1.73;1.10;;;;;;;-1.63;67.19;101980.66;5059148;28;20052;-73
2023/11/19 01:21:30;;;;;;;1.17;1.08;;;;;;;-1.66;66.85;101975.38;5058790;28;20541;-73
2023/11/19 01:23:57;;;;;;;0.98;0.73;;;;;;;-1.63;67.28;101979.78;5061740;28;20057;-73
2023/11/19 01:26:24;;;;;;;1.20;1.10;;;;;;;-1.64;67.29;101976.34;5059929;28;20052;-73
2023/11/19 01:28:52;;;;;;;1.15;0.88;;;;;;;-1.74;67.57;101961.31;5063471;28;20040;-73
2023/11/19 01:31:21;;;;;;;1.98;1.30;;;;;;;-1.64;67.30;101984.03;5061130;28;20083;-73
2023/11/19 01:33:48;;;;;;;1.33;1.08;;;;;;;-1.66;66.89;101980.50;5057511;28;20493;-72
2023/11/19 01:36:15;;;;;;;4.50;1.23;;;;;;;-1.66;67.34;101975.38;5056247;28;20058;-72
2023/11/19 01:38:42;;;;;;;1.25;0.80;;;;;;;-1.66;67.35;101979.63;5058673;28;20075;-72
2023/11/19 01:41:08;;;;;;;1.83;1.00;;;;;;;-1.67;67.27;101981.31;5058995;28;20055;-72
2023/11/19 01:43:36;;;;;;;1.60;0.80;;;;;;;-1.67;67.28;101968.50;5054851;28;20045;-73
2023/11/19 01:46:05;;;;;;;0.95;0.70;;;;;;;-1.69;67.49;101970.09;5056449;28;20041;-73
2023/11/19 01:48:36;;;;;;;1.45;1.10;;;;;;;-1.67;67.58;101967.63;5055294;28;20041;-73
2023/11/19 01:51:04;;;;;;;3.33;1.00;;;;;;;-1.69;67.15;101956.44;5054500;28;20488;-73
2023/11/19 01:53:32;;;;;;;1.10;0.73;;;;;;;-1.71;67.65;101951.22;5060294;28;20056;-73
2023/11/19 01:56:00;;;;;;;1.75;1.08;;;;;;;-1.71;67.22;101958.03;5055780;28;20044;-73
2023/11/19 01:58:27;;;;;;;2.15;0.73;;;;;;;-1.72;67.53;101943.47;5058037;28;20049;-73
2023/11/19 02:00:54;;;;;;;1.05;0.60;;;;;;;-1.75;67.20;101944.19;5059609;28;20409;-73
2023/11/19 02:03:22;;;;;;;1.00;0.63;;;;;;;-1.74;67.32;101945.94;5055936;28;20044;-73
2023/11/19 02:05:51;;;;;;;1.83;0.70;;;;;;;-1.90;67.38;101907.56;5052425;28;20060;-73
2023/11/19 02:08:18;;;;;;;1.25;0.70;;;;;;;-1.78;67.88;101933.78;5059815;28;20045;-73
2023/11/19 02:10:45;;;;;;;1.27;0.70;;;;;;;-1.81;67.52;101923.41;5054788;28;20041;-72
2023/11/19 02:13:13;;;;;;;2.50;0.98;;;;;;;-1.83;66.81;101914.75;5059696;28;20066;-74
2023/11/19 02:15:40;;;;;;;1.48;0.95;;;;;;;-1.87;66.88;101923.97;5059502;28;20564;-73
2023/11/19 02:18:21;;;;;;;0.82;0.60;;;;;;;-1.89;67.69;101914.44;5058010;28;20131;-73
2023/11/19 02:20:50;;;;;;;2.05;0.65;;;;;;;-1.90;67.49;101926.38;5062539;28;20049;-73
2023/11/19 02:23:18;;;;;;;1.55;0.80;;;;;;;-1.92;67.38;101916.84;5056893;28;20044;-73
2023/11/19 02:25:54;;;;;;;1.23;0.70;;;;;;;-1.96;67.06;101909.81;5058683;28;20044;-73
2023/11/19 02:28:22;;;;;;;3.47;0.60;;;;;;;-1.99;66.74;101912.19;5059618;28;20086;-73
2023/11/19 02:30:49;;;;;;;1.10;0.73;;;;;;;-2.04;67.23;101902.63;5057404;28;20072;-73
2023/11/19 02:33:16;;;;;;;0.80;0.60;;;;;;;-2.06;67.47;101906.78;5055534;28;20049;-73
2023/11/19 02:35:43;;;;;;;2.40;1.10;;;;;;;-2.09;67.91;101898.94;5059395;28;20047;-72
2023/11/19 02:38:10;;;;;;;1.00;0.77;;;;;;;-2.16;67.34;101889.22;5054925;28;20051;-73
2023/11/19 02:40:37;;;;;;;1.02;0.60;;;;;;;-2.15;67.03;101896.06;5058779;28;20517;-73
2023/11/19 02:43:05;;;;;;;0.82;0.60;;;;;;;-2.18;67.32;101895.94;5058008;28;20733;-70
2023/11/19 02:45:33;;;;;;;1.00;0.80;;;;;;;-2.27;67.65;101888.66;5056624;28;20049;-71
2023/11/19 02:48:02;;;;;;;1.65;0.70;;;;;;;-2.23;67.50;101894.81;5056528;28;20127;-71
2023/11/19 02:50:29;;;;;;;1.10;0.70;;;;;;;-2.25;67.30;101893.84;5056434;28;20712;-71
2023/11/19 02:52:57;;;;;;;0.85;0.65;;;;;;;-2.28;68.08;101894.59;5059146;28;20045;-71
2023/11/19 02:55:24;;;;;;;2.33;0.70;;;;;;;-2.33;67.69;101879.78;5053410;28;20713;-71
2023/11/19 02:57:53;;;;;;;1.55;0.70;;;;;;;-2.32;67.62;101881.53;5056216;28;20045;-73
2023/11/19 03:00:23;;;;;;;1.00;0.77;;;;;;;-2.35;67.41;101881.38;5055651;28;20072;-71
2023/11/19 03:02:59;;;;;;;1.33;0.70;;;;;;;-2.37;67.77;101878.72;5058317;28;20060;-71
2023/11/19 03:05:29;;;;;;;0.80;0.65;;;;;;;-2.38;68.00;101868.44;5062317;28;20064;-72
2023/11/19 03:07:56;;;;;;;0.82;0.57;;;;;;;-2.39;67.30;101856.41;5058981;28;20045;-71
2023/11/19 03:10:23;;;;;;;1.90;0.60;;;;;;;-2.42;67.84;101849.50;5062953;28;20716;-71
2023/11/19 03:12:50;;;;;;;0.95;0.60;;;;;;;-2.45;67.35;101838.19;5058491;28;20064;-71
2023/11/19 03:15:17;;;;;;;1.00;0.60;;;;;;;-2.45;67.68;101848.44;5061364;28;20037;-72
2023/11/19 03:17:44;;;;;;;1.13;0.55;;;;;;;-2.46;67.67;101836.44;5061448;28;20087;-71
2023/11/19 03:20:15;;;;;;;0.95;0.50;;;;;;;-2.51;67.71;101849.88;5059965;28;20048;-71
2023/11/19 03:22:43;;;;;;;1.00;0.55;;;;;;;-2.53;67.62;101843.81;5058474;28;20036;-70
2023/11/19 03:25:10;;;;;;;0.85;0.57;;;;;;;-2.54;67.71;101841.16;5058419;28;20102;-73
2023/11/19 03:27:38;;;;;;;1.33;0.60;;;;;;;-2.56;67.96;101838.53;5062084;28;20052;-72
2023/11/19 03:30:06;;;;;;;2.10;0.65;;;;;;;-2.60;67.89;101828.06;5061101;28;20087;-71
2023/11/19 03:32:34;;;;;;;0.90;0.60;;;;;;;-2.63;67.42;101826.22;5060226;28;20052;-71
2023/11/19 03:35:01;;;;;;;0.85;0.60;;;;;;;-2.63;68.01;101826.22;5058890;28;20052;-71
2023/11/19 03:37:29;;;;;;;1.08;0.70;;;;;;;-2.66;67.87;101822.63;5059159;28;20065;-71
2023/11/19 03:39:59;;;;;;;4.82;0.95;;;;;;;-2.69;68.11;101812.25;5061917;28;20032;-71
2023/11/19 03:42:27;;;;;;;1.45;0.50;;;;;;;-2.74;67.90;101810.31;5061419;28;20044;-71
2023/11/19 03:44:54;;;;;;;0.93;0.52;;;;;;;-2.75;67.85;101812.81;5061236;28;20048;-72
2023/11/19 03:47:21;;;;;;;1.15;0.68;;;;;;;-2.78;67.76;101812.66;5062707;28;20113;-72
2023/11/19 03:49:50;;;;;;;4.25;0.75;;;;;;;-2.91;67.99;101788.09;5061532;28;20041;-71
2023/11/19 03:52:17;;;;;;;1.65;1.02;;;;;;;-2.83;68.06;101808.97;5061645;28;20041;-71
2023/11/19 03:54:45;;;;;;;3.05;1.00;;;;;;;-2.87;67.80;101807.06;5057145;28;20050;-71
2023/11/19 03:57:13;;;;;;;1.02;0.70;;;;;;;-2.90;67.82;101806.88;5057311;28;20048;-72
2023/11/19 03:59:40;;;;;;;1.38;0.90;;;;;;;-2.94;68.05;101801.59;5060981;28;20059;-74
2023/11/19 04:02:07;;;;;;;0.85;0.70;;;;;;;-2.92;67.80;101798.25;5061407;28;20048;-74
2023/11/19 04:04:34;;;;;;;1.77;0.93;;;;;;;-2.96;68.35;101787.88;5061639;28;21493;-74
2023/11/19 04:07:02;;;;;;;1.05;0.75;;;;;;;-2.96;68.31;101792.09;5058190;28;20040;-75
2023/11/19 04:09:30;;;;;;;1.40;1.02;;;;;;;-2.99;67.89;101787.72;5063406;28;20103;-74
2023/11/19 04:11:58;;;;;;;2.15;1.13;;;;;;;-3.00;68.04;101785.06;5059013;28;20457;-75
2023/11/19 04:14:25;;;;;;;1.10;0.60;;;;;;;-3.05;68.47;101776.28;5059392;28;20056;-74
2023/11/19 04:16:52;;;;;;;2.22;0.93;;;;;;;-3.04;67.89;101778.06;5062277;28;20041;-74
2023/11/19 04:19:19;;;;;;;1.38;0.88;;;;;;;-3.07;67.94;101778.78;5061980;28;20052;-74
2023/11/19 04:21:47;;;;;;;2.58;1.00;;;;;;;-3.06;68.39;101770.28;5059048;28;20668;-75
2023/11/19 04:24:14;;;;;;;1.05;0.75;;;;;;;-3.09;68.40;101772.69;5057863;28;20443;-74
2023/11/19 04:26:42;;;;;;;1.77;0.90;;;;;;;-3.10;68.55;101770.94;5058644;28;20560;-74
2023/11/19 04:29:12;;;;;;;2.33;0.88;;;;;;;-3.11;68.62;101765.72;5059491;28;20045;-74
2023/11/19 04:31:39;;;;;;;1.33;0.80;;;;;;;-3.13;68.71;101749.44;5062916;28;20049;-75
2023/11/19 04:34:06;;;;;;;1.20;1.10;;;;;;;-3.13;68.44;101758.00;5060979;28;20543;-75
2023/11/19 04:36:33;;;;;;;2.30;0.88;;;;;;;-3.16;68.28;101752.69;5061036;28;20139;-75
2023/11/19 04:39:00;;;;;;;2.10;0.98;;;;;;;-3.15;68.38;101753.59;5050782;28;20060;-74
2023/11/19 04:41:27;;;;;;;2.15;0.80;;;;;;;-3.15;68.90;101754.47;5062037;28;20103;-74
2023/11/19 04:43:55;;;;;;;3.38;0.68;;;;;;;-3.18;68.70;101742.41;5058112;28;20083;-74
2023/11/19 04:46:23;;;;;;;1.58;0.90;;;;;;;-3.16;68.70;101752.69;5059874;28;20107;-74
2023/11/19 04:48:50;;;;;;;1.90;0.80;;;;;;;-3.15;68.52;101749.38;5058454;28;20513;-75
2023/11/19 04:51:17;;;;;;;2.00;0.95;;;;;;;-3.20;68.81;101736.34;5055808;28;20049;-74
2023/11/19 04:53:44;;;;;;;1.27;0.80;;;;;;;-3.13;69.18;101741.75;5060960;28;20044;-74
2023/11/19 04:56:13;;;;;;;1.17;0.80;;;;;;;-3.16;68.96;101737.38;5057641;28;20504;-75
2023/11/19 04:58:40;;;;;;;0.95;0.60;;;;;;;-3.13;68.97;101735.00;5057356;28;20173;-75
2023/11/19 05:01:07;;;;;;;1.70;0.73;;;;;;;-3.15;69.30;101733.16;5057697;28;20049;-74
2023/11/19 05:03:36;;;;;;;2.88;0.60;;;;;;;-3.12;69.20;101734.19;5062164;28;20053;-76
2023/11/19 05:06:03;;;;;;;1.50;0.85;;;;;;;-3.13;69.10;101732.44;5061148;28;20068;-77
2023/11/19 05:08:29;;;;;;;1.23;0.88;;;;;;;-3.11;69.06;101730.81;5062381;28;20057;-77
2023/11/19 05:10:57;;;;;;;1.85;0.60;;;;;;;-3.10;69.09;101727.50;5060455;28;20047;-76
2023/11/19 05:13:24;;;;;;;1.20;0.80;;;;;;;-3.07;69.16;101729.34;5060160;28;20053;-75
2023/11/19 05:15:51;;;;;;;0.90;0.52;;;;;;;-3.07;69.41;101719.97;5055731;28;20044;-75
2023/11/19 05:18:18;;;;;;;1.00;0.63;;;;;;;-3.06;69.16;101714.06;5058225;28;20048;-74
2023/11/19 05:20:46;;;;;;;2.25;0.80;;;;;;;-3.05;69.64;101713.25;5062215;28;20037;-74
2023/11/19 05:23:13;;;;;;;1.40;0.80;;;;;;;-3.02;69.52;101709.97;5056233;28;20768;-74
2023/11/19 05:25:40;;;;;;;1.48;0.90;;;;;;;-3.01;69.08;101709.19;5061329;28;20063;-74
2023/11/19 05:28:07;;;;;;;0.68;0.40;;;;;;;-3.00;69.53;101711.81;5060078;28;20040;-75
2023/11/19 05:30:34;;;;;;;1.70;0.80;;;;;;;-2.97;69.40;101708.53;5058462;28;20041;-74
2023/11/19 05:33:01;;;;;;;1.20;0.70;;;;;;;-2.96;69.53;101700.97;5053875;28;20135;-74
2023/11/19 05:35:28;;;;;;;1.30;0.60;;;;;;;-2.92;69.34;101696.00;5059410;28;20040;-75
2023/11/19 05:37:56;;;;;;;1.23;0.63;;;;;;;-2.91;69.40;101708.84;5061082;28;20052;-74
2023/11/19 05:40:23;;;;;;;1.95;0.73;;;;;;;-2.89;69.33;101698.72;5055130;28;20440;-74
2023/11/19 05:42:50;;;;;;;1.20;1.00;;;;;;;-2.87;69.68;101704.78;5056197;28;20136;-75
2023/11/19 05:45:17;;;;;;;1.50;1.20;;;;;;;-2.87;69.75;101700.56;5062712;28;20048;-74
2023/11/19 05:47:43;;;;;;;3.30;1.00;;;;;;;-2.84;69.63;101699.84;5058982;28;20045;-74
2023/11/19 05:50:11;;;;;;;1.67;0.90;;;;;;;-2.82;69.71;101693.97;5060218;28;20057;-76
2023/11/19 05:52:38;;;;;;;2.17;0.80;;;;;;;-2.80;69.56;101692.38;5060754;28;20052;-74
2023/11/19 05:55:09;;;;;;;1.42;0.70;;;;;;;-2.79;69.56;101688.13;5058380;28;20537;-74
2023/11/19 05:57:36;;;;;;;2.20;1.00;;;;;;;-2.77;69.68;101689.97;5058166;28;20045;-74
2023/11/19 06:00:06;;;;;;;1.50;0.80;;;;;;;-2.76;69.63;101676.41;5060369;28;20518;-74
2023/11/19 06:02:34;;;;;;;1.35;1.10;;;;;;;-2.73;69.66;101683.34;5056699;28;20049;-74
2023/11/19 06:05:01;;;;;;;1.63;0.88;;;;;;;-2.72;69.80;101675.75;5060740;28;20048;-74
2023/11/19 06:07:28;;;;;;;1.15;0.57;;;;;;;-2.69;69.79;101675.03;5058174;28;20081;-74
2023/11/19 06:09:54;;;;;;;1.80;0.82;;;;;;;-2.68;69.76;101671.66;5057264;28;20408;-75
2023/11/19 06:12:23;;;;;;;2.00;1.08;;;;;;;-2.66;69.46;101675.16;5057862;28;20041;-73
2023/11/19 06:14:50;;;;;;;1.23;0.73;;;;;;;-2.66;69.76;101680.28;5059716;28;20045;-73
2023/11/19 06:17:16;;;;;;;1.10;0.70;;;;;;;-2.67;70.02;101673.41;5059810;28;20677;-73
2023/11/19 06:19:44;;;;;;;2.03;0.90;;;;;;;-2.62;69.56;101671.97;5057205;28;20056;-72
2023/11/19 06:22:12;;;;;;;0.80;0.60;;;;;;;-2.62;69.91;101669.41;5055182;28;20136;-77
2023/11/19 06:24:38;;;;;;;1.17;0.70;;;;;;;-2.59;69.91;101667.00;5058334;28;20052;-76
2023/11/19 06:27:05;;;;;;;1.05;0.68;;;;;;;-2.59;69.92;101658.44;5061316;28;20041;-76
2023/11/19 06:29:33;;;;;;;1.50;0.70;;;;;;;-2.55;70.19;101668.91;5061430;28;20574;-77
2023/11/19 06:32:00;;;;;;;3.20;0.75;;;;;;;-2.54;69.51;101665.53;5059676;28;20056;-77
2023/11/19 06:34:27;;;;;;;1.10;0.70;;;;;;;-2.54;69.72;101665.53;5062614;28;20045;-77
2023/11/19 06:36:54;;;;;;;1.45;0.70;;;;;;;-2.50;70.10;101664.03;5062052;28;20044;-77
2023/11/19 06:39:21;;;;;;;2.42;1.63;;;;;;;-2.50;69.67;101661.47;5065567;28;20045;-76
2023/11/19 06:41:48;;;;;;;1.67;0.73;;;;;;;-2.47;70.06;101658.19;5063849;28;20393;-77
2023/11/19 06:44:15;;;;;;;0.85;0.80;;;;;;;-2.45;69.44;101654.88;5063146;28;20041;-77
2023/11/19 06:46:43;;;;;;;2.67;0.70;;;;;;;-2.45;69.70;101649.75;5066631;28;20045;-76
2023/11/19 06:49:10;;;;;;;1.48;0.55;;;;;;;-2.42;70.27;101647.38;5066991;28;20054;-77
2023/11/19 06:51:42;;;;;;;1.98;0.80;;;;;;;-2.44;69.67;101637.84;5065931;28;20103;-77
2023/11/19 06:54:09;;;;;;;0.60;0.50;;;;;;;-2.40;69.85;101644.88;5062478;28;20041;-77
2023/11/19 06:56:36;;;;;;;2.30;0.70;;;;;;;-2.40;69.77;101642.31;5068046;28;20040;-77
2023/11/19 06:59:03;;;;;;;1.15;0.70;;;;;;;-2.39;69.29;101644.03;5059169;28;20041;-76
2023/11/19 07:01:35;;;;;;;1.70;0.80;;;;;;;-2.40;69.98;101626.94;5065340;28;20066;-77
2023/11/19 07:04:08;;;;;;;1.63;0.60;;;;;;;-2.40;69.82;101625.25;5064677;28;20049;-77
2023/11/19 07:06:35;;;;;;;1.00;0.77;;;;;;;-2.40;69.84;101632.94;5064812;28;20076;-77
2023/11/19 07:09:09;;;;;;;1.27;0.68;;;;;;;-2.41;69.73;101633.75;5061053;28;20045;-77
2023/11/19 07:11:36;;;;;;;1.27;0.70;;;;;;;-2.42;69.91;101620.88;5064016;28;20383;-76
2023/11/19 07:14:03;;;;;;;0.93;0.70;;;;;;;-2.43;69.62;101617.44;5063665;28;20099;-76
2023/11/19 07:16:30;;;;;;;1.27;0.73;;;;;;;-2.43;69.80;101627.69;5061585;28;20057;-76
2023/11/19 07:18:58;;;;;;;1.20;0.77;;;;;;;-2.46;69.74;101624.97;5066237;28;20049;-77
2023/11/19 07:21:28;;;;;;;1.23;0.60;;;;;;;-2.43;69.90;101629.38;5065968;28;20111;-76
2023/11/19 07:23:54;;;;;;;0.98;0.55;;;;;;;-2.44;69.51;101625.06;5059968;28;20051;-72
2023/11/19 07:26:25;;;;;;;1.20;0.68;;;;;;;-2.44;69.61;101625.06;5058444;28;20053;-72
2023/11/19 07:28:52;;;;;;;1.10;0.85;;;;;;;-2.47;69.84;101612.13;5061985;28;20044;-73
2023/11/19 07:31:19;;;;;;;1.15;0.50;;;;;;;-2.45;69.50;101618.19;5061755;28;20497;-72
2023/11/19 07:33:47;;;;;;;2.05;1.10;;;;;;;-2.48;69.42;101608.66;5060389;28;20044;-72
2023/11/19 07:36:14;;;;;;;1.88;0.98;;;;;;;-2.46;69.82;101611.31;5059832;28;20049;-72
2023/11/19 07:38:43;;;;;;;1.60;0.90;;;;;;;-2.50;69.61;101611.16;5060896;28;20056;-71
2023/11/19 07:41:12;;;;;;;3.55;0.98;;;;;;;-2.51;69.89;101613.63;5060549;28;20382;-71
2023/11/19 07:43:41;;;;;;;1.85;0.82;;;;;;;-2.52;69.78;101612.78;5062553;28;20071;-71
2023/11/19 07:46:12;;;;;;;1.75;1.08;;;;;;;-2.52;69.80;101614.47;5059080;28;20052;-73
2023/11/19 07:48:43;;;;;;;2.08;1.08;;;;;;;-2.52;69.57;101611.91;5058710;28;20060;-73
2023/11/19 07:51:12;;;;;;;2.00;0.80;;;;;;;-2.52;70.06;101607.66;5058506;28;20045;-73
2023/11/19 07:53:40;;;;;;;1.10;0.80;;;;;;;-2.53;70.10;101605.91;5056122;28;20551;-73
2023/11/19 07:56:10;;;;;;;6.43;1.98;;;;;;;-2.53;70.07;101610.16;5059053;28;20098;-73
2023/11/19 07:58:37;;;;;;;2.50;1.00;;;;;;;-2.58;69.76;101602.25;5060948;28;20050;-77
2023/11/19 08:01:04;;;;;;;3.97;1.00;;;;;;;-2.54;70.17;101614.38;5053320;28;20121;-76
2023/11/19 08:03:34;;;;;;;4.03;1.30;;;;;;;-2.53;69.65;101620.38;5062852;28;20058;-76
2023/11/19 08:06:01;;;;;;;1.60;0.90;;;;;;;-2.53;70.17;101611.03;5061187;28;20652;-76
2023/11/19 08:08:29;;;;;;;2.17;1.00;;;;;;;-2.52;69.91;101606.78;5060027;28;20086;-76
2023/11/19 08:10:56;;;;;;;1.17;0.73;;;;;;;-2.52;70.14;101612.78;5060991;28;20481;-77
2023/11/19 08:13:24;;;;;;;2.38;1.10;;;;;;;-2.53;69.64;101600.78;5057772;28;20051;-76
2023/11/19 08:15:51;;;;;;;0.90;0.63;;;;;;;-2.52;70.19;101596.56;5059678;28;20049;-77
2023/11/19 08:18:19;;;;;;;2.13;1.23;;;;;;;-2.54;70.12;101604.13;5065551;28;20065;-77
2023/11/19 08:20:48;;;;;;;1.98;1.00;;;;;;;-2.53;69.88;101598.25;5057763;28;20041;-77
2023/11/19 08:23:15;;;;;;;1.63;1.00;;;;;;;-2.53;70.25;101603.34;5063395;28;20036;-77
2023/11/19 08:25:42;;;;;;;1.40;0.80;;;;;;;-2.51;70.33;101601.72;5063895;28;20048;-77
2023/11/19 08:28:09;;;;;;;2.13;0.93;;;;;;;-2.52;70.36;101594.88;5060510;28;20137;-77
2023/11/19 08:30:37;;;;;;;1.67;0.80;;;;;;;-2.51;70.22;101599.16;5060554;28;20052;-77
2023/11/19 08:33:05;;;;;;;2.72;1.35;;;;;;;-2.50;70.41;101600.94;5061999;28;20047;-76
2023/11/19 08:35:32;;;;;;;1.35;0.77;;;;;;;-2.50;70.49;101593.25;5055196;28;20102;-78
2023/11/19 08:37:59;;;;;;;1.58;0.82;;;;;;;-2.46;70.59;101603.63;5065633;28;20139;-78
2023/11/19 08:40:26;;;;;;;2.10;1.10;;;;;;;-2.45;70.10;101600.25;5060831;28;20045;-77
2023/11/19 08:42:53;;;;;;;1.13;0.80;;;;;;;-2.43;70.72;101606.34;5060232;28;20043;-71
2023/11/19 08:45:20;;;;;;;3.90;1.27;;;;;;;-2.43;70.80;101591.84;5060238;28;20053;-71
2023/11/19 08:47:48;;;;;;;2.67;1.10;;;;;;;-2.40;70.29;101591.13;5055853;28;20516;-71
2023/11/19 08:50:15;;;;;;;2.22;1.23;;;;;;;-2.37;70.76;101596.38;5057585;28;20052;-71
2023/11/19 08:52:42;;;;;;;1.75;1.13;;;;;;;-2.35;70.91;101595.66;5058740;28;20049;-71
2023/11/19 08:55:10;;;;;;;2.25;1.27;;;;;;;-2.34;70.54;101584.63;5060460;28;20478;-71
2023/11/19 08:57:35;;;;;;;3.60;1.70;;;;;;;-2.30;70.61;101585.66;5058514;28;20041;-71
2023/11/19 09:00:03;;;;;;;4.35;2.38;;;;;;;-2.29;70.70;101579.72;5058941;28;20412;-71
2023/11/19 09:02:29;;;;;;;9.75;4.70;;;;;;;-2.26;70.80;101577.28;5059645;28;20457;-70
2023/11/19 09:04:58;;;;;;;5.50;3.40;;;;;;;-2.24;70.91;101572.25;5056553;28;20041;-71
2023/11/19 09:07:25;;;;;;;4.75;2.55;;;;;;;-2.21;70.75;101586.06;5057201;28;20413;-71
2023/11/19 09:09:52;;;;;;;4.78;1.75;;;;;;;-2.17;71.08;101576.84;5058328;28;20049;-74
2023/11/19 09:12:18;;;;;;;4.10;2.40;;;;;;;-2.15;70.61;101576.13;5059561;28;20047;-71
2023/11/19 09:14:46;;;;;;;3.85;1.63;;;;;;;-2.10;71.34;101579.75;5058346;28;20049;-71
2023/11/19 09:17:13;;;;;;;2.92;1.58;;;;;;;-2.07;70.94;101572.22;5051647;28;20497;-71
2023/11/19 09:19:40;;;;;;;2.72;1.30;;;;;;;-2.04;71.36;101561.25;5058186;28;20040;-71
2023/11/19 09:22:08;;;;;;;3.47;1.85;;;;;;;-2.03;70.83;101552.75;5052292;28;20045;-71
2023/11/19 09:24:35;;;;;;;3.30;1.95;;;;;;;-1.97;70.87;101552.16;5052384;28;20062;-71
2023/11/19 09:27:02;;;;;;;3.70;1.83;;;;;;;-1.96;71.20;101544.56;5055173;28;20052;-69
2023/11/19 09:29:29;;;;;;;3.47;1.55;;;;;;;-1.92;70.70;101548.13;5054473;28;20661;-71
2023/11/19 09:31:55;;;;;;;2.90;1.23;;;;;;;-1.89;71.08;101549.13;5056560;28;20041;-71
2023/11/19 09:34:22;;;;;;;2.20;1.02;;;;;;;-1.86;70.62;101535.59;5054772;28;20058;-71
2023/11/19 09:36:49;;;;;;;2.70;1.50;;;;;;;-1.81;70.82;101534.09;5059019;28;20058;-71
2023/11/19 09:39:17;;;;;;;6.05;1.50;;;;;;;-1.79;70.66;101532.50;5054151;28;20481;-72
2023/11/19 09:41:45;;;;;;;2.95;1.25;;;;;;;-1.75;70.63;101534.38;5054763;28;20120;-72
2023/11/19 09:44:12;;;;;;;2.58;1.25;;;;;;;-1.72;70.41;101525.94;5057973;28;20036;-72
2023/11/19 09:46:40;;;;;;;3.38;1.60;;;;;;;-1.69;70.83;101534.63;5054723;28;20485;-72
2023/11/19 09:49:09;;;;;;;1.80;1.45;;;;;;;-1.67;70.46;101535.59;5056992;28;20055;-72
2023/11/19 09:51:37;;;;;;;1.83;1.02;;;;;;;-1.71;70.65;101509.75;5059812;28;20044;-74
2023/11/19 09:54:04;;;;;;;1.85;1.35;;;;;;;-1.62;71.28;101520.41;5052541;28;20047;-72
2023/11/19 09:56:37;;;;;;;5.40;1.40;;;;;;;-1.60;70.94;101513.66;5057080;28;20047;-72
2023/11/19 09:59:03;;;;;;;2.10;0.88;;;;;;;-1.59;70.64;101516.28;5058192;28;20102;-72
2023/11/19 10:01:31;;;;;;;3.83;1.38;;;;;;;-1.55;71.33;101504.47;5054180;28;20048;-72
2023/11/19 10:03:59;;;;;;;5.47;1.13;;;;;;;-1.53;70.28;101515.69;5053142;28;20045;-72
2023/11/19 10:06:27;;;;;;;2.60;1.08;;;;;;;-1.52;70.52;101509.72;5057047;28;20045;-72
2023/11/19 10:08:55;;;;;;;2.45;0.90;;;;;;;-1.47;70.70;101502.25;5053026;28;20505;-72
2023/11/19 10:11:22;;;;;;;2.38;0.82;;;;;;;-1.44;70.92;101507.50;5054728;28;20393;-72
2023/11/19 10:13:50;;;;;;;2.03;1.23;;;;;;;-1.41;71.21;101505.06;5057096;28;20055;-72
2023/11/19 10:16:18;;;;;;;3.63;1.30;;;;;;;-1.38;70.86;101492.38;5052226;28;20040;-72
2023/11/19 10:18:46;;;;;;;2.45;1.00;;;;;;;-1.36;70.36;101488.19;5053744;28;20053;-72
2023/11/19 10:21:16;;;;;;;2.88;1.25;;;;;;;-1.33;70.69;101478.06;5052423;28;20421;-72
2023/11/19 10:23:53;;;;;;;2.55;1.23;;;;;;;-1.30;70.36;101491.00;5056060;28;20060;-73
2023/11/19 10:26:21;;;;;;;1.67;1.05;;;;;;;-1.27;71.03;101482.56;5055859;28;20544;-72
2023/11/19 10:28:49;;;;;;;2.13;1.10;;;;;;;-1.24;70.84;101485.25;5058355;28;20048;-72
2023/11/19 10:31:17;;;;;;;3.95;1.08;;;;;;;-1.25;70.45;101479.28;5055026;28;20044;-72
2023/11/19 10:33:44;;;;;;;1.42;0.90;;;;;;;-1.21;70.17;101476.00;5060228;28;20052;-72
2023/11/19 10:36:12;;;;;;;1.55;0.77;;;;;;;-1.18;70.16;101475.25;5052543;28;20045;-72
2023/11/19 10:38:39;;;;;;;3.22;1.02;;;;;;;-1.23;70.61;101462.25;5055174;28;20045;-72
2023/11/19 10:41:06;;;;;;;2.85;1.25;;;;;;;-1.16;70.78;101456.56;5051303;28;20045;-72
2023/11/19 10:43:44;;;;;;;2.15;1.00;;;;;;;-1.12;70.41;101457.56;5055293;28;20053;-72
2023/11/19 10:46:14;;;;;;;2.38;1.05;;;;;;;-1.11;70.13;101456.75;5057475;28;20706;-72
2023/11/19 10:48:41;;;;;;;1.33;0.60;;;;;;;-1.11;70.50;101446.50;5056042;28;20045;-72
2023/11/19 10:51:10;;;;;;;1.70;0.80;;;;;;;-1.12;70.10;101449.84;5057003;28;20045;-72
2023/11/19 10:53:39;;;;;;;2.35;0.95;;;;;;;-1.10;70.19;101445.69;5056456;28;20067;-69
2023/11/19 10:56:11;;;;;;;4.45;0.95;;;;;;;-1.08;69.96;101454.31;5055278;28;20052;-70
2023/11/19 10:58:39;;;;;;;1.58;0.88;;;;;;;-1.06;69.80;101451.78;5051748;28;20041;-69
2023/11/19 11:01:14;;;;;;;1.75;1.10;;;;;;;-1.04;70.21;101447.59;5056897;28;20087;-69
2023/11/19 11:03:41;;;;;;;1.80;0.80;;;;;;;-1.05;70.06;101449.31;5054954;28;20396;-71
2023/11/19 11:06:10;;;;;;;1.20;0.80;;;;;;;-1.02;70.73;101448.56;5053368;28;20051;-72
2023/11/19 11:08:38;;;;;;;5.72;1.05;;;;;;;-1.02;70.07;101438.28;5054129;28;20106;-72
2023/11/19 11:11:06;;;;;;;2.35;1.08;;;;;;;-1.00;69.87;101440.06;5052846;28;20490;-72
2023/11/19 11:13:34;;;;;;;3.50;1.20;;;;;;;-0.99;70.34;101436.72;5052036;28;20053;-73
2023/11/19 11:16:04;;;;;;;3.83;1.27;;;;;;;-0.98;70.17;101435.88;5052898;28;20045;-74
2023/11/19 11:18:32;;;;;;;1.70;0.88;;;;;;;-0.97;69.90;101423.94;5056638;28;20056;-73
2023/11/19 11:21:04;;;;;;;1.20;0.57;;;;;;;-0.97;69.97;101431.63;5044700;28;20043;-74
2023/11/19 11:23:55;;;;;;;2.33;0.60;;;;;;;-0.97;70.40;101431.63;5053093;28;20047;-74
2023/11/19 11:26:49;;;;;;;2.22;0.88;;;;;;;-0.96;70.07;101424.00;5061895;28;20443;-74